sensor_id;sensor_type;location;lat;lon;timestamp;temperature;humidity
74666;DHT22;71408;50.106;8.694;2023-07-24T00:01:25;25.60;43.50
74666;DHT22;71408;50.106;8.694;2023-07-24T00:03:51;25.60;43.60
74666;DHT22;71408;50.106;8.694;2023-07-24T00:06:16;25.60;43.40
74666;DHT22;71408;50.106;8.694;2023-07-24T00:08:42;25.60;43.50
74666;DHT22;71408;50.106;8.694;2023-07-24T00:11:07;25.60;43.50
74666;DHT22;71408;50.106;8.694;2023-07-24T00:13:33;25.60;43.50
74666;DHT22;71408;50.106;8.694;2023-07-24T00:15:58;25.60;43.50
74666;DHT22;71408;50.106;8.694;2023-07-24T00:18:24;25.60;43.40
74666;DHT22;71408;50.106;8.694;2023-07-24T00:20:49;25.60;43.40
74666;DHT22;71408;50.106;8.694;2023-07-24T00:23:15;25.60;43.60
74666;DHT22;71408;50.106;8.694;2023-07-24T00:25:40;25.60;43.50
74666;DHT22;71408;50.106;8.694;2023-07-24T00:28:06;25.60;43.50
74666;DHT22;71408;50.106;8.694;2023-07-24T00:30:31;25.60;43.60
74666;DHT22;71408;50.106;8.694;2023-07-24T00:32:57;25.60;43.70
74666;DHT22;71408;50.106;8.694;2023-07-24T00:35:22;25.60;43.50
74666;DHT22;71408;50.106;8.694;2023-07-24T00:37:48;25.60;43.50
74666;DHT22;71408;50.106;8.694;2023-07-24T00:40:13;25.60;43.50
74666;DHT22;71408;50.106;8.694;2023-07-24T00:42:39;25.60;43.50
74666;DHT22;71408;50.106;8.694;2023-07-24T00:45:04;25.60;43.60
74666;DHT22;71408;50.106;8.694;2023-07-24T00:47:30;25.50;43.60
74666;DHT22;71408;50.106;8.694;2023-07-24T00:49:55;25.60;43.60
74666;DHT22;71408;50.106;8.694;2023-07-24T00:52:21;25.60;43.70
74666;DHT22;71408;50.106;8.694;2023-07-24T00:54:47;25.60;43.60
74666;DHT22;71408;50.106;8.694;2023-07-24T00:57:13;25.50;43.60
74666;DHT22;71408;50.106;8.694;2023-07-24T00:59:38;25.60;43.60
74666;DHT22;71408;50.106;8.694;2023-07-24T01:02:04;25.50;43.50
74666;DHT22;71408;50.106;8.694;2023-07-24T01:04:30;25.60;43.60
74666;DHT22;71408;50.106;8.694;2023-07-24T01:06:55;25.50;43.70
74666;DHT22;71408;50.106;8.694;2023-07-24T01:09:21;25.50;43.60
74666;DHT22;71408;50.106;8.694;2023-07-24T01:11:48;25.60;43.50
74666;DHT22;71408;50.106;8.694;2023-07-24T01:14:23;25.60;43.50
74666;DHT22;71408;50.106;8.694;2023-07-24T01:16:50;25.50;43.50
74666;DHT22;71408;50.106;8.694;2023-07-24T01:22:33;25.50;43.70
74666;DHT22;71408;50.106;8.694;2023-07-24T01:25:35;25.50;43.70
74666;DHT22;71408;50.106;8.694;2023-07-24T01:27:54;25.50;43.60
74666;DHT22;71408;50.106;8.694;2023-07-24T01:30:20;25.50;43.60
74666;DHT22;71408;50.106;8.694;2023-07-24T01:32:46;25.50;43.60
74666;DHT22;71408;50.106;8.694;2023-07-24T01:35:11;25.50;43.60
74666;DHT22;71408;50.106;8.694;2023-07-24T01:37:37;25.50;43.50
74666;DHT22;71408;50.106;8.694;2023-07-24T01:40:05;25.60;43.60
74666;DHT22;71408;50.106;8.694;2023-07-24T01:42:31;25.60;43.60
74666;DHT22;71408;50.106;8.694;2023-07-24T01:44:56;25.60;43.60
74666;DHT22;71408;50.106;8.694;2023-07-24T01:47:22;25.60;43.60
74666;DHT22;71408;50.106;8.694;2023-07-24T01:49:48;25.60;43.50
74666;DHT22;71408;50.106;8.694;2023-07-24T01:52:13;25.60;43.60
74666;DHT22;71408;50.106;8.694;2023-07-24T01:54:39;25.60;43.60
74666;DHT22;71408;50.106;8.694;2023-07-24T01:57:04;25.60;43.50
74666;DHT22;71408;50.106;8.694;2023-07-24T01:59:30;25.60;43.50
74666;DHT22;71408;50.106;8.694;2023-07-24T02:01:55;25.60;43.50
74666;DHT22;71408;50.106;8.694;2023-07-24T02:04:21;25.60;43.60
74666;DHT22;71408;50.106;8.694;2023-07-24T02:06:48;25.50;43.60
74666;DHT22;71408;50.106;8.694;2023-07-24T02:09:13;25.60;43.60
74666;DHT22;71408;50.106;8.694;2023-07-24T02:11:39;25.50;43.60
74666;DHT22;71408;50.106;8.694;2023-07-24T02:14:04;25.50;43.60
74666;DHT22;71408;50.106;8.694;2023-07-24T02:16:30;25.60;43.60
74666;DHT22;71408;50.106;8.694;2023-07-24T02:18:55;25.50;43.60
74666;DHT22;71408;50.106;8.694;2023-07-24T02:21:21;25.50;43.50
74666;DHT22;71408;50.106;8.694;2023-07-24T02:23:46;25.60;43.50
74666;DHT22;71408;50.106;8.694;2023-07-24T02:26:11;25.60;43.40
74666;DHT22;71408;50.106;8.694;2023-07-24T02:28:37;25.60;43.50
74666;DHT22;71408;50.106;8.694;2023-07-24T02:31:02;25.60;43.50
74666;DHT22;71408;50.106;8.694;2023-07-24T02:33:28;25.60;43.40
74666;DHT22;71408;50.106;8.694;2023-07-24T02:35:53;25.60;43.60
74666;DHT22;71408;50.106;8.694;2023-07-24T02:38:19;25.50;43.50
74666;DHT22;71408;50.106;8.694;2023-07-24T02:40:44;25.60;43.60
74666;DHT22;71408;50.106;8.694;2023-07-24T02:43:10;25.60;43.60
74666;DHT22;71408;50.106;8.694;2023-07-24T02:45:38;25.60;43.60
74666;DHT22;71408;50.106;8.694;2023-07-24T02:48:04;25.50;43.50
74666;DHT22;71408;50.106;8.694;2023-07-24T02:50:29;25.50;43.60
74666;DHT22;71408;50.106;8.694;2023-07-24T02:52:55;25.50;43.70
74666;DHT22;71408;50.106;8.694;2023-07-24T02:55:21;25.50;43.70
74666;DHT22;71408;50.106;8.694;2023-07-24T02:57:46;25.50;43.90
74666;DHT22;71408;50.106;8.694;2023-07-24T03:00:12;25.50;43.90
74666;DHT22;71408;50.106;8.694;2023-07-24T03:02:38;25.40;44.00
74666;DHT22;71408;50.106;8.694;2023-07-24T03:05:03;25.40;44.20
74666;DHT22;71408;50.106;8.694;2023-07-24T03:07:29;25.40;44.20
74666;DHT22;71408;50.106;8.694;2023-07-24T03:09:54;25.30;44.20
74666;DHT22;71408;50.106;8.694;2023-07-24T03:12:20;25.30;44.30
74666;DHT22;71408;50.106;8.694;2023-07-24T03:14:46;25.30;44.20
74666;DHT22;71408;50.106;8.694;2023-07-24T03:17:12;25.40;44.20
74666;DHT22;71408;50.106;8.694;2023-07-24T03:19:37;25.40;44.20
74666;DHT22;71408;50.106;8.694;2023-07-24T03:22:03;25.40;44.10
74666;DHT22;71408;50.106;8.694;2023-07-24T03:24:28;25.40;44.00
74666;DHT22;71408;50.106;8.694;2023-07-24T03:26:54;25.40;43.90
74666;DHT22;71408;50.106;8.694;2023-07-24T03:29:19;25.40;44.00
74666;DHT22;71408;50.106;8.694;2023-07-24T03:31:45;25.40;44.10
74666;DHT22;71408;50.106;8.694;2023-07-24T03:34:10;25.40;44.10
74666;DHT22;71408;50.106;8.694;2023-07-24T03:36:36;25.40;44.10
74666;DHT22;71408;50.106;8.694;2023-07-24T03:39:02;25.40;44.10
74666;DHT22;71408;50.106;8.694;2023-07-24T03:41:27;25.40;44.10
74666;DHT22;71408;50.106;8.694;2023-07-24T03:43:53;25.40;44.10
74666;DHT22;71408;50.106;8.694;2023-07-24T03:46:18;25.40;44.00
74666;DHT22;71408;50.106;8.694;2023-07-24T03:48:44;25.40;44.20
74666;DHT22;71408;50.106;8.694;2023-07-24T03:51:09;25.40;44.10
74666;DHT22;71408;50.106;8.694;2023-07-24T03:53:35;25.40;44.10
74666;DHT22;71408;50.106;8.694;2023-07-24T03:56:00;25.40;44.20
74666;DHT22;71408;50.106;8.694;2023-07-24T03:58:26;25.40;44.10
74666;DHT22;71408;50.106;8.694;2023-07-24T04:00:51;25.40;44.10
74666;DHT22;71408;50.106;8.694;2023-07-24T04:03:17;25.40;44.20
74666;DHT22;71408;50.106;8.694;2023-07-24T04:05:42;25.40;44.20
74666;DHT22;71408;50.106;8.694;2023-07-24T04:08:08;25.40;44.20
74666;DHT22;71408;50.106;8.694;2023-07-24T04:10:33;25.40;44.20
74666;DHT22;71408;50.106;8.694;2023-07-24T04:12:58;25.40;44.20
74666;DHT22;71408;50.106;8.694;2023-07-24T04:15:24;25.40;44.20
74666;DHT22;71408;50.106;8.694;2023-07-24T04:17:49;25.40;44.20
74666;DHT22;71408;50.106;8.694;2023-07-24T04:20:15;25.40;44.20
74666;DHT22;71408;50.106;8.694;2023-07-24T04:22:40;25.40;44.20
74666;DHT22;71408;50.106;8.694;2023-07-24T04:25:06;25.40;44.20
74666;DHT22;71408;50.106;8.694;2023-07-24T04:27:32;25.40;44.30
74666;DHT22;71408;50.106;8.694;2023-07-24T04:29:57;25.40;44.30
74666;DHT22;71408;50.106;8.694;2023-07-24T04:32:23;25.30;44.30
74666;DHT22;71408;50.106;8.694;2023-07-24T04:34:48;25.30;44.40
74666;DHT22;71408;50.106;8.694;2023-07-24T04:37:14;25.30;44.50
74666;DHT22;71408;50.106;8.694;2023-07-24T04:39:39;25.40;44.50
74666;DHT22;71408;50.106;8.694;2023-07-24T04:42:05;25.40;44.30
74666;DHT22;71408;50.106;8.694;2023-07-24T04:44:30;25.40;44.30
74666;DHT22;71408;50.106;8.694;2023-07-24T04:46:57;25.40;44.30
74666;DHT22;71408;50.106;8.694;2023-07-24T04:49:23;25.40;44.30
74666;DHT22;71408;50.106;8.694;2023-07-24T04:51:48;25.40;44.20
74666;DHT22;71408;50.106;8.694;2023-07-24T04:54:14;25.40;44.30
74666;DHT22;71408;50.106;8.694;2023-07-24T04:56:39;25.40;44.40
74666;DHT22;71408;50.106;8.694;2023-07-24T04:59:05;25.40;44.30
74666;DHT22;71408;50.106;8.694;2023-07-24T05:01:30;25.40;44.50
74666;DHT22;71408;50.106;8.694;2023-07-24T05:03:56;25.40;44.60
74666;DHT22;71408;50.106;8.694;2023-07-24T05:06:21;25.40;44.50
74666;DHT22;71408;50.106;8.694;2023-07-24T05:08:47;25.40;44.50
74666;DHT22;71408;50.106;8.694;2023-07-24T05:11:12;25.40;44.60
74666;DHT22;71408;50.106;8.694;2023-07-24T05:13:37;25.30;44.50
74666;DHT22;71408;50.106;8.694;2023-07-24T05:16:03;25.40;44.60
74666;DHT22;71408;50.106;8.694;2023-07-24T05:18:29;25.40;44.50
74666;DHT22;71408;50.106;8.694;2023-07-24T05:20:54;25.40;44.60
74666;DHT22;71408;50.106;8.694;2023-07-24T05:23:20;25.30;44.60
74666;DHT22;71408;50.106;8.694;2023-07-24T05:25:45;25.30;44.70
74666;DHT22;71408;50.106;8.694;2023-07-24T05:28:11;25.30;44.80
74666;DHT22;71408;50.106;8.694;2023-07-24T05:30:37;25.20;44.90
74666;DHT22;71408;50.106;8.694;2023-07-24T05:33:02;25.20;44.80
74666;DHT22;71408;50.106;8.694;2023-07-24T05:35:28;25.20;45.10
74666;DHT22;71408;50.106;8.694;2023-07-24T05:37:53;25.20;45.00
74666;DHT22;71408;50.106;8.694;2023-07-24T05:40:18;25.20;45.00
74666;DHT22;71408;50.106;8.694;2023-07-24T05:42:44;25.20;45.10
74666;DHT22;71408;50.106;8.694;2023-07-24T05:45:10;25.20;45.10
74666;DHT22;71408;50.106;8.694;2023-07-24T05:47:42;25.20;45.20
74666;DHT22;71408;50.106;8.694;2023-07-24T05:50:07;25.20;45.20
74666;DHT22;71408;50.106;8.694;2023-07-24T05:52:33;25.20;45.10
74666;DHT22;71408;50.106;8.694;2023-07-24T05:54:58;25.20;45.10
74666;DHT22;71408;50.106;8.694;2023-07-24T05:57:24;25.20;45.10
74666;DHT22;71408;50.106;8.694;2023-07-24T05:59:49;25.20;45.00
74666;DHT22;71408;50.106;8.694;2023-07-24T06:02:17;25.30;45.10
74666;DHT22;71408;50.106;8.694;2023-07-24T06:04:42;25.30;45.00
74666;DHT22;71408;50.106;8.694;2023-07-24T06:07:08;25.30;44.90
74666;DHT22;71408;50.106;8.694;2023-07-24T06:09:33;25.30;45.10
74666;DHT22;71408;50.106;8.694;2023-07-24T06:11:59;25.30;45.10
74666;DHT22;71408;50.106;8.694;2023-07-24T06:14:24;25.30;45.10
74666;DHT22;71408;50.106;8.694;2023-07-24T06:16:49;25.30;45.10
74666;DHT22;71408;50.106;8.694;2023-07-24T06:19:15;25.30;45.20
74666;DHT22;71408;50.106;8.694;2023-07-24T06:21:41;25.30;45.30
74666;DHT22;71408;50.106;8.694;2023-07-24T06:24:06;25.30;45.30
74666;DHT22;71408;50.106;8.694;2023-07-24T06:26:37;25.30;45.30
74666;DHT22;71408;50.106;8.694;2023-07-24T06:29:02;25.30;45.20
74666;DHT22;71408;50.106;8.694;2023-07-24T06:31:27;25.30;45.80
74666;DHT22;71408;50.106;8.694;2023-07-24T06:33:53;25.30;45.30
74666;DHT22;71408;50.106;8.694;2023-07-24T06:36:18;25.30;45.40
74666;DHT22;71408;50.106;8.694;2023-07-24T06:38:44;25.30;45.90
74666;DHT22;71408;50.106;8.694;2023-07-24T06:41:09;25.40;45.30
74666;DHT22;71408;50.106;8.694;2023-07-24T06:43:35;25.40;45.40
74666;DHT22;71408;50.106;8.694;2023-07-24T06:46:00;25.30;45.70
74666;DHT22;71408;50.106;8.694;2023-07-24T06:48:26;25.30;45.60
74666;DHT22;71408;50.106;8.694;2023-07-24T06:50:51;25.30;45.50
74666;DHT22;71408;50.106;8.694;2023-07-24T06:53:17;25.30;45.60
74666;DHT22;71408;50.106;8.694;2023-07-24T06:55:42;25.30;45.70
74666;DHT22;71408;50.106;8.694;2023-07-24T06:58:08;25.30;45.90
74666;DHT22;71408;50.106;8.694;2023-07-24T07:00:33;25.30;45.90
74666;DHT22;71408;50.106;8.694;2023-07-24T07:02:58;25.20;46.20
74666;DHT22;71408;50.106;8.694;2023-07-24T07:05:24;25.20;45.70
74666;DHT22;71408;50.106;8.694;2023-07-24T07:07:49;25.20;46.30
74666;DHT22;71408;50.106;8.694;2023-07-24T07:10:15;25.20;46.20
74666;DHT22;71408;50.106;8.694;2023-07-24T07:12:40;25.20;46.40
74666;DHT22;71408;50.106;8.694;2023-07-24T07:15:06;25.10;46.90
74666;DHT22;71408;50.106;8.694;2023-07-24T07:17:32;25.20;46.50
74666;DHT22;71408;50.106;8.694;2023-07-24T07:19:57;25.20;46.80
74666;DHT22;71408;50.106;8.694;2023-07-24T07:22:23;25.20;46.90
74666;DHT22;71408;50.106;8.694;2023-07-24T07:24:48;25.20;46.70
74666;DHT22;71408;50.106;8.694;2023-07-24T07:27:14;25.20;46.70
74666;DHT22;71408;50.106;8.694;2023-07-24T07:29:42;25.20;46.80
74666;DHT22;71408;50.106;8.694;2023-07-24T07:32:08;25.10;47.00
74666;DHT22;71408;50.106;8.694;2023-07-24T07:34:34;25.20;46.80
74666;DHT22;71408;50.106;8.694;2023-07-24T07:37:01;25.30;46.70
74666;DHT22;71408;50.106;8.694;2023-07-24T07:39:26;25.30;46.70
74666;DHT22;71408;50.106;8.694;2023-07-24T07:41:52;25.20;46.90
74666;DHT22;71408;50.106;8.694;2023-07-24T07:44:17;25.30;46.80
74666;DHT22;71408;50.106;8.694;2023-07-24T07:46:43;25.20;46.70
74666;DHT22;71408;50.106;8.694;2023-07-24T07:49:08;25.30;46.60
74666;DHT22;71408;50.106;8.694;2023-07-24T07:51:34;25.40;46.60
74666;DHT22;71408;50.106;8.694;2023-07-24T07:53:59;25.40;46.60
74666;DHT22;71408;50.106;8.694;2023-07-24T07:56:25;25.40;46.60
74666;DHT22;71408;50.106;8.694;2023-07-24T07:58:50;25.40;46.50
74666;DHT22;71408;50.106;8.694;2023-07-24T08:01:16;25.40;46.50
74666;DHT22;71408;50.106;8.694;2023-07-24T08:03:41;25.40;46.70
74666;DHT22;71408;50.106;8.694;2023-07-24T08:06:07;25.40;46.70
74666;DHT22;71408;50.106;8.694;2023-07-24T08:08:32;25.40;46.80
74666;DHT22;71408;50.106;8.694;2023-07-24T08:10:57;25.40;46.70
74666;DHT22;71408;50.106;8.694;2023-07-24T08:13:23;25.40;46.60
74666;DHT22;71408;50.106;8.694;2023-07-24T08:15:49;25.40;46.80
74666;DHT22;71408;50.106;8.694;2023-07-24T08:18:14;25.50;46.90
74666;DHT22;71408;50.106;8.694;2023-07-24T08:20:40;25.40;47.00
74666;DHT22;71408;50.106;8.694;2023-07-24T08:23:05;25.40;46.80
74666;DHT22;71408;50.106;8.694;2023-07-24T08:25:31;25.50;46.90
74666;DHT22;71408;50.106;8.694;2023-07-24T08:27:56;25.50;46.80
74666;DHT22;71408;50.106;8.694;2023-07-24T08:30:22;25.50;46.90
74666;DHT22;71408;50.106;8.694;2023-07-24T08:32:47;25.50;47.00
74666;DHT22;71408;50.106;8.694;2023-07-24T08:35:15;25.40;47.10
74666;DHT22;71408;50.106;8.694;2023-07-24T08:37:44;25.40;47.10
74666;DHT22;71408;50.106;8.694;2023-07-24T08:40:09;25.40;47.10
74666;DHT22;71408;50.106;8.694;2023-07-24T08:42:35;25.50;47.20
74666;DHT22;71408;50.106;8.694;2023-07-24T08:45:03;25.50;47.30
74666;DHT22;71408;50.106;8.694;2023-07-24T08:47:29;25.50;47.20
74666;DHT22;71408;50.106;8.694;2023-07-24T08:49:54;25.50;47.30
74666;DHT22;71408;50.106;8.694;2023-07-24T08:52:20;25.60;47.30
74666;DHT22;71408;50.106;8.694;2023-07-24T08:54:46;25.50;47.20
74666;DHT22;71408;50.106;8.694;2023-07-24T08:57:12;25.50;47.30
74666;DHT22;71408;50.106;8.694;2023-07-24T08:59:38;25.50;47.30
74666;DHT22;71408;50.106;8.694;2023-07-24T09:02:04;25.50;47.40
74666;DHT22;71408;50.106;8.694;2023-07-24T09:04:30;25.60;47.30
74666;DHT22;71408;50.106;8.694;2023-07-24T09:06:57;25.50;47.10
74666;DHT22;71408;50.106;8.694;2023-07-24T09:09:23;25.60;47.30
74666;DHT22;71408;50.106;8.694;2023-07-24T09:11:52;25.50;47.40
74666;DHT22;71408;50.106;8.694;2023-07-24T09:14:21;25.60;47.40
74666;DHT22;71408;50.106;8.694;2023-07-24T09:16:47;25.60;47.50
74666;DHT22;71408;50.106;8.694;2023-07-24T09:19:18;25.60;47.30
74666;DHT22;71408;50.106;8.694;2023-07-24T09:21:44;25.60;47.40
74666;DHT22;71408;50.106;8.694;2023-07-24T09:24:13;25.60;47.60
74666;DHT22;71408;50.106;8.694;2023-07-24T09:26:51;25.70;47.50
74666;DHT22;71408;50.106;8.694;2023-07-24T09:29:17;25.60;47.60
74666;DHT22;71408;50.106;8.694;2023-07-24T09:31:43;25.70;47.70
74666;DHT22;71408;50.106;8.694;2023-07-24T09:34:15;25.60;47.50
74666;DHT22;71408;50.106;8.694;2023-07-24T09:36:41;25.70;47.70
74666;DHT22;71408;50.106;8.694;2023-07-24T09:39:07;25.60;47.70
74666;DHT22;71408;50.106;8.694;2023-07-24T09:41:36;25.60;47.80
74666;DHT22;71408;50.106;8.694;2023-07-24T09:44:01;25.70;47.70
74666;DHT22;71408;50.106;8.694;2023-07-24T09:46:27;25.70;47.80
74666;DHT22;71408;50.106;8.694;2023-07-24T09:48:53;25.70;47.60
74666;DHT22;71408;50.106;8.694;2023-07-24T09:51:19;25.80;47.80
74666;DHT22;71408;50.106;8.694;2023-07-24T09:53:53;25.70;47.80
74666;DHT22;71408;50.106;8.694;2023-07-24T09:56:20;25.80;47.40
74666;DHT22;71408;50.106;8.694;2023-07-24T09:58:46;25.80;47.60
74666;DHT22;71408;50.106;8.694;2023-07-24T10:01:14;25.80;47.60
74666;DHT22;71408;50.106;8.694;2023-07-24T10:03:45;25.70;47.60
74666;DHT22;71408;50.106;8.694;2023-07-24T10:06:11;25.80;47.30
74666;DHT22;71408;50.106;8.694;2023-07-24T10:08:37;25.80;47.30
74666;DHT22;71408;50.106;8.694;2023-07-24T10:11:05;25.80;47.50
74666;DHT22;71408;50.106;8.694;2023-07-24T10:13:31;25.80;47.50
74666;DHT22;71408;50.106;8.694;2023-07-24T10:16:02;25.80;47.30
74666;DHT22;71408;50.106;8.694;2023-07-24T10:18:28;26.00;47.00
74666;DHT22;71408;50.106;8.694;2023-07-24T10:21:05;25.90;47.00
74666;DHT22;71408;50.106;8.694;2023-07-24T10:23:31;26.00;46.90
74666;DHT22;71408;50.106;8.694;2023-07-24T10:26:02;26.00;46.90
74666;DHT22;71408;50.106;8.694;2023-07-24T10:28:32;26.00;47.00
74666;DHT22;71408;50.106;8.694;2023-07-24T10:30:57;26.00;47.00
74666;DHT22;71408;50.106;8.694;2023-07-24T10:33:23;25.90;46.90
74666;DHT22;71408;50.106;8.694;2023-07-24T10:35:55;25.90;46.90
74666;DHT22;71408;50.106;8.694;2023-07-24T10:38:34;25.90;47.00
74666;DHT22;71408;50.106;8.694;2023-07-24T10:41:04;25.90;47.00
74666;DHT22;71408;50.106;8.694;2023-07-24T10:43:40;25.90;46.80
74666;DHT22;71408;50.106;8.694;2023-07-24T10:46:05;25.90;46.70
74666;DHT22;71408;50.106;8.694;2023-07-24T10:48:31;26.00;46.50
74666;DHT22;71408;50.106;8.694;2023-07-24T10:50:56;26.00;46.40
74666;DHT22;71408;50.106;8.694;2023-07-24T10:53:22;26.00;46.20
74666;DHT22;71408;50.106;8.694;2023-07-24T10:55:48;25.90;46.30
74666;DHT22;71408;50.106;8.694;2023-07-24T10:58:15;26.00;46.40
74666;DHT22;71408;50.106;8.694;2023-07-24T11:00:41;26.00;46.30
74666;DHT22;71408;50.106;8.694;2023-07-24T11:03:10;26.00;46.40
74666;DHT22;71408;50.106;8.694;2023-07-24T11:05:38;26.00;46.40
74666;DHT22;71408;50.106;8.694;2023-07-24T11:08:08;26.00;46.30
74666;DHT22;71408;50.106;8.694;2023-07-24T11:10:33;26.10;46.30
74666;DHT22;71408;50.106;8.694;2023-07-24T11:12:59;26.10;46.30
74666;DHT22;71408;50.106;8.694;2023-07-24T11:15:25;26.10;46.30
74666;DHT22;71408;50.106;8.694;2023-07-24T11:17:53;26.10;46.30
74666;DHT22;71408;50.106;8.694;2023-07-24T11:20:19;26.10;46.20
74666;DHT22;71408;50.106;8.694;2023-07-24T11:22:45;26.10;46.30
74666;DHT22;71408;50.106;8.694;2023-07-24T11:25:10;26.10;46.40
74666;DHT22;71408;50.106;8.694;2023-07-24T11:27:43;26.10;46.40
74666;DHT22;71408;50.106;8.694;2023-07-24T11:30:12;26.10;46.40
74666;DHT22;71408;50.106;8.694;2023-07-24T11:32:39;26.10;46.50
74666;DHT22;71408;50.106;8.694;2023-07-24T11:35:05;26.20;46.60
74666;DHT22;71408;50.106;8.694;2023-07-24T11:37:30;26.20;46.60
74666;DHT22;71408;50.106;8.694;2023-07-24T11:39:59;26.20;46.40
74666;DHT22;71408;50.106;8.694;2023-07-24T11:42:29;26.20;46.40
74666;DHT22;71408;50.106;8.694;2023-07-24T11:44:55;26.30;46.40
74666;DHT22;71408;50.106;8.694;2023-07-24T11:47:20;26.30;46.30
74666;DHT22;71408;50.106;8.694;2023-07-24T11:49:59;26.30;46.20
74666;DHT22;71408;50.106;8.694;2023-07-24T11:52:25;26.30;46.10
74666;DHT22;71408;50.106;8.694;2023-07-24T11:54:56;26.30;46.00
74666;DHT22;71408;50.106;8.694;2023-07-24T11:57:26;26.30;46.00
74666;DHT22;71408;50.106;8.694;2023-07-24T11:59:52;26.30;46.00
74666;DHT22;71408;50.106;8.694;2023-07-24T12:02:18;26.30;46.10
74666;DHT22;71408;50.106;8.694;2023-07-24T12:04:44;26.30;45.80
74666;DHT22;71408;50.106;8.694;2023-07-24T12:07:09;26.40;45.70
74666;DHT22;71408;50.106;8.694;2023-07-24T12:09:35;26.40;45.50
74666;DHT22;71408;50.106;8.694;2023-07-24T12:12:03;26.40;45.30
74666;DHT22;71408;50.106;8.694;2023-07-24T12:14:28;26.50;45.30
74666;DHT22;71408;50.106;8.694;2023-07-24T12:17:00;26.50;45.10
74666;DHT22;71408;50.106;8.694;2023-07-24T12:19:26;26.60;45.00
74666;DHT22;71408;50.106;8.694;2023-07-24T12:21:51;26.60;44.90
74666;DHT22;71408;50.106;8.694;2023-07-24T12:24:17;26.60;44.70
74666;DHT22;71408;50.106;8.694;2023-07-24T12:26:42;26.60;44.50
74666;DHT22;71408;50.106;8.694;2023-07-24T12:29:07;26.60;44.50
74666;DHT22;71408;50.106;8.694;2023-07-24T12:31:33;26.70;44.50
74666;DHT22;71408;50.106;8.694;2023-07-24T12:33:58;26.70;44.50
74666;DHT22;71408;50.106;8.694;2023-07-24T12:36:24;26.70;44.50
74666;DHT22;71408;50.106;8.694;2023-07-24T12:38:49;26.80;44.50
74666;DHT22;71408;50.106;8.694;2023-07-24T12:41:15;26.70;44.50
74666;DHT22;71408;50.106;8.694;2023-07-24T12:43:40;26.70;44.50
74666;DHT22;71408;50.106;8.694;2023-07-24T12:46:06;26.70;44.50
74666;DHT22;71408;50.106;8.694;2023-07-24T12:48:31;26.70;45.10
74666;DHT22;71408;50.106;8.694;2023-07-24T12:50:57;26.70;44.50
74666;DHT22;71408;50.106;8.694;2023-07-24T12:53:23;26.70;44.50
74666;DHT22;71408;50.106;8.694;2023-07-24T12:55:48;26.70;44.50
74666;DHT22;71408;50.106;8.694;2023-07-24T12:58:14;26.60;44.70
74666;DHT22;71408;50.106;8.694;2023-07-24T13:00:39;26.70;44.70
74666;DHT22;71408;50.106;8.694;2023-07-24T13:03:05;26.60;44.80
74666;DHT22;71408;50.106;8.694;2023-07-24T13:05:31;26.60;44.80
74666;DHT22;71408;50.106;8.694;2023-07-24T13:07:56;26.60;44.90
74666;DHT22;71408;50.106;8.694;2023-07-24T13:10:22;26.60;45.10
74666;DHT22;71408;50.106;8.694;2023-07-24T13:12:47;26.50;45.10
74666;DHT22;71408;50.106;8.694;2023-07-24T13:15:13;26.50;45.40
74666;DHT22;71408;50.106;8.694;2023-07-24T13:17:38;26.50;45.30
74666;DHT22;71408;50.106;8.694;2023-07-24T13:20:04;26.50;45.40
74666;DHT22;71408;50.106;8.694;2023-07-24T13:22:30;26.40;45.60
74666;DHT22;71408;50.106;8.694;2023-07-24T13:24:56;26.50;45.70
74666;DHT22;71408;50.106;8.694;2023-07-24T13:27:21;26.40;45.80
74666;DHT22;71408;50.106;8.694;2023-07-24T13:29:47;26.40;45.80
74666;DHT22;71408;50.106;8.694;2023-07-24T13:32:12;26.50;46.00
74666;DHT22;71408;50.106;8.694;2023-07-24T13:34:38;26.40;46.30
74666;DHT22;71408;50.106;8.694;2023-07-24T13:37:03;26.40;46.40
74666;DHT22;71408;50.106;8.694;2023-07-24T13:39:29;26.40;46.30
74666;DHT22;71408;50.106;8.694;2023-07-24T13:41:56;26.50;46.30
74666;DHT22;71408;50.106;8.694;2023-07-24T13:44:22;26.50;46.10
74666;DHT22;71408;50.106;8.694;2023-07-24T13:46:47;26.60;46.30
74666;DHT22;71408;50.106;8.694;2023-07-24T13:49:13;26.50;46.40
74666;DHT22;71408;50.106;8.694;2023-07-24T13:51:38;26.60;46.40
74666;DHT22;71408;50.106;8.694;2023-07-24T13:54:04;26.50;46.70
74666;DHT22;71408;50.106;8.694;2023-07-24T13:56:29;26.50;46.90
74666;DHT22;71408;50.106;8.694;2023-07-24T13:58:58;26.50;46.70
74666;DHT22;71408;50.106;8.694;2023-07-24T14:01:24;26.50;46.90
74666;DHT22;71408;50.106;8.694;2023-07-24T14:03:49;26.40;48.20
74666;DHT22;71408;50.106;8.694;2023-07-24T14:06:14;26.40;48.40
74666;DHT22;71408;50.106;8.694;2023-07-24T14:08:40;26.40;49.50
74666;DHT22;71408;50.106;8.694;2023-07-24T14:11:05;26.30;50.30
74666;DHT22;71408;50.106;8.694;2023-07-24T14:13:31;26.30;50.10
74666;DHT22;71408;50.106;8.694;2023-07-24T14:15:56;26.30;50.00
74666;DHT22;71408;50.106;8.694;2023-07-24T14:18:22;26.30;50.30
74666;DHT22;71408;50.106;8.694;2023-07-24T14:20:47;26.30;50.70
74666;DHT22;71408;50.106;8.694;2023-07-24T14:23:13;26.30;51.00
74666;DHT22;71408;50.106;8.694;2023-07-24T14:25:38;26.30;51.30
74666;DHT22;71408;50.106;8.694;2023-07-24T14:28:04;26.30;51.30
74666;DHT22;71408;50.106;8.694;2023-07-24T14:30:29;26.30;51.00
74666;DHT22;71408;50.106;8.694;2023-07-24T14:32:55;26.30;51.20
74666;DHT22;71408;50.106;8.694;2023-07-24T14:35:20;26.30;51.30
74666;DHT22;71408;50.106;8.694;2023-07-24T14:37:46;26.40;51.80
74666;DHT22;71408;50.106;8.694;2023-07-24T14:40:11;26.40;51.30
74666;DHT22;71408;50.106;8.694;2023-07-24T14:42:37;26.40;52.80
74666;DHT22;71408;50.106;8.694;2023-07-24T14:45:03;26.30;53.30
74666;DHT22;71408;50.106;8.694;2023-07-24T14:47:28;26.30;52.10
74666;DHT22;71408;50.106;8.694;2023-07-24T14:49:54;26.40;53.00
74666;DHT22;71408;50.106;8.694;2023-07-24T14:52:19;26.40;53.00
74666;DHT22;71408;50.106;8.694;2023-07-24T14:54:45;26.40;52.90
74666;DHT22;71408;50.106;8.694;2023-07-24T14:57:10;26.50;53.10
74666;DHT22;71408;50.106;8.694;2023-07-24T14:59:36;26.40;53.50
74666;DHT22;71408;50.106;8.694;2023-07-24T15:02:02;26.40;53.50
74666;DHT22;71408;50.106;8.694;2023-07-24T15:04:28;26.40;53.80
74666;DHT22;71408;50.106;8.694;2023-07-24T15:06:53;26.40;53.20
74666;DHT22;71408;50.106;8.694;2023-07-24T15:09:18;26.40;52.40
74666;DHT22;71408;50.106;8.694;2023-07-24T15:11:44;26.60;52.70
74666;DHT22;71408;50.106;8.694;2023-07-24T15:14:09;26.60;52.50
74666;DHT22;71408;50.106;8.694;2023-07-24T15:16:35;26.50;52.20
74666;DHT22;71408;50.106;8.694;2023-07-24T15:19:00;26.60;53.00
74666;DHT22;71408;50.106;8.694;2023-07-24T15:21:26;26.60;52.30
74666;DHT22;71408;50.106;8.694;2023-07-24T15:23:51;26.50;51.90
74666;DHT22;71408;50.106;8.694;2023-07-24T15:26:18;26.40;51.60